Flight Track Log - Related Links

Times and Time Zones

All times are in EDT time to prevent confusion due to time zone crossing. See the ASQ5687 flight status page for this flight to view local times or setup timezone preferences in your user account.

Time Position Orientation Groundspeed Altitude Reporting Facility
EDT Latitude Longitude Course Direction KTS MPH feet Rate Location/Type
Sun 08:30:17 AM 38.9500 -77.5000 303° West 173 199 1,300  Level Potomac TRACON
Sun 08:31:23 AM 38.9833 -77.5667 303° West 219 252 2,900 1,767 Climbing Potomac TRACON
Sun 08:32:26 AM 39.0400 -77.6361 316° Northwest 268 308 5,100 2,244 Climbing Washington Center
Sun 08:33:26 AM 39.1106 -77.6461 354° North 281 323 7,500 2,231 Climbing Washington Center
Sun 08:34:27 AM 39.1897 -77.6508 357° North 286 329 9,600 1,721 Climbing Washington Center
Sun 08:35:28 AM 39.2753 -77.6453 North 292 336 11,000 1,261 Climbing Washington Center
Sun 08:36:26 AM 39.3594 -77.5994 23° Northeast 298 343 12,100 1,311 Climbing Washington Center
Sun 08:37:27 AM 39.4539 -77.5508 22° Northeast 329 379 13,600 1,438 Climbing Washington Center
Sun 08:38:27 AM 39.5464 -77.5050 21° North 347 399 15,000 1,377 Climbing Washington Center
Sun 08:39:29 AM 39.6444 -77.4578 20° North 358 412 16,400 1,350 Climbing New York Center
Sun 08:40:27 AM 39.7450 -77.4511 North 373 429 17,700 1,311 Climbing New York Center
Sun 08:41:28 AM 39.8494 -77.4503 360° North 373 429 19,000 1,289 Climbing New York Center
Sun 08:42:28 AM 39.9514 -77.4517 359° North 368 423 20,300 1,008 Climbing New York Center
Sun 08:43:27 AM 40.0503 -77.4722 351° North 363 418 21,000 446 Climbing New York Center
Sun 08:44:29 AM 40.1419 -77.5133 341° North 375 432 21,200 639 Climbing New York Center
Sun 08:45:29 AM 40.2481 -77.5536 344° North 380 437 22,300 1,169 Climbing New York Center
Sun 08:46:27 AM 40.3500 -77.5936 343° North 385 443 23,500 1,160 Climbing New York Center
Sun 08:47:28 AM 40.4478 -77.6333 343° North 378 435 24,600 818 Climbing New York Center
Sun 08:49:23 AM 40.6522 -77.7150 343° North 359 413 25,900 617 Climbing Cleveland Center
Sun 08:50:23 AM 40.7556 -77.7542 344° North 370 426 26,400 500 Climbing Cleveland Center
Sun 08:51:23 AM 40.8608 -77.7964 343° North 385 443 26,900 500 Climbing Cleveland Center
Sun 08:52:23 AM 40.9578 -77.8364 343° North 391 450 27,400 500 Climbing Cleveland Center
Sun 08:53:23 AM 41.0628 -77.8758 344° North 391 450 27,900 300 Climbing Cleveland Center
Sun 08:54:23 AM 41.1722 -77.9211 343° North 397 457 28,000 50 Climbing Cleveland Center
Sun 08:55:23 AM 41.2839 -77.9664 343° North 405 466 28,000  Level Cleveland Center
Sun 08:56:23 AM 41.3975 -78.0114 343° North 410 472 28,000  Level Cleveland Center
Sun 08:57:23 AM 41.5111 -78.0569 343° North 420 483 28,000  Level Cleveland Center
Sun 08:58:23 AM 41.6289 -78.1022 344° North 431 496 28,000  Level Cleveland Center
Sun 08:59:23 AM 41.7425 -78.1508 342° North 431 496 28,000  Level Cleveland Center
Sun 09:00:23 AM 41.8603 -78.2022 342° North 431 496 28,000  Level Cleveland Center
Sun 09:01:23 AM 41.9781 -78.2481 344° North 431 496 28,000  Level Cleveland Center
Sun 09:02:23 AM 42.1042 -78.3022 342° North 431 496 28,000  Level Cleveland Center
Sun 09:03:23 AM 42.2219 -78.3514 343° North 431 496 28,000  Level Cleveland Center
Sun 09:04:23 AM 42.3417 -78.4006 343° North 436 502 28,000  Level Cleveland Center
Sun 09:05:23 AM 42.4592 -78.4500 343° North 441 507 28,000 -650 Level Cleveland Center
Sun 09:06:23 AM 42.5769 -78.4994 343° North 441 507 26,700 -1,000 Descending Cleveland Center
Sun 09:07:23 AM 42.6967 -78.5492 343° North 441 507 26,000 -350 Descending Cleveland Center
Sun 09:08:23 AM 42.8142 -78.5992 343° North 441 507 26,000 -650 Level Cleveland Center
Sun 09:09:23 AM 42.9339 -78.6606 339° North 446 513 24,700 -1,600 Descending Cleveland Center
Sun 09:10:23 AM 43.0111 -78.7972 308° West 437 503 22,800 -2,147 Descending Cleveland Center
Sun 09:11:12 AM 43.0667 -78.8833 311° West 440 506 20,800 -2,532 Descending Toronto Center
Sun 09:12:12 AM 43.1167 -79.0167 297° West 410 472 18,200 -2,550 Descending Toronto Center
Sun 09:13:12 AM 43.1833 -79.1333 308° West 400 460 15,700 -2,500 Descending Toronto Center
Sun 09:14:12 AM 43.2500 -79.2500 308° West 390 449 13,200 -1,700 Descending Toronto Center
Sun 09:15:12 AM 43.3167 -79.3333 318° Northwest 330 380 12,300 -950 Descending Toronto Center
Sun 09:16:12 AM 43.3833 -79.3833 331° Northwest 290 334 11,300 -950 Descending Toronto Center
Sun 09:17:12 AM 43.4500 -79.4333 331° Northwest 290 334 10,400 -1,350 Descending Toronto Center
Sun 09:18:12 AM 43.5167 -79.5000 324° Northwest 280 322 8,600 -1,350 Descending Toronto Center
Sun 09:19:12 AM 43.5833 -79.5167 350° North 260 299 7,700 -1,650 Descending Toronto Center
Sun 09:20:12 AM 43.6333 -79.4500 44° Northeast 240 276 5,300 -2,350 Descending Toronto Center
Sun 09:21:12 AM 43.6833 -79.3833 44° Northeast 240 276 3,000 -1,150 Descending Toronto Center
Sun 09:22:12 AM 43.7333 -79.4000 346° North 200 230 3,000 -50 Level Toronto Center
Sun 09:23:12 AM 43.7500 -79.4500 295° West 190 219 2,900 -100 Descending Toronto Center

Login

Don't have an account? Register now (free) for customized features, flight alerts, and more!